sensor_id;sensor_type;location;lat;lon;timestamp;P1;durP1;ratioP1;P2;durP2;ratioP2
8013;SDS011;4052;50.500;8.660;2022-10-31T00:01:10;2.40;;;2.20;;
8013;SDS011;4052;50.500;8.660;2022-10-31T00:03:36;4.73;;;1.77;;
8013;SDS011;4052;50.500;8.660;2022-10-31T00:06:02;3.20;;;1.97;;
8013;SDS011;4052;50.500;8.660;2022-10-31T00:08:28;4.00;;;2.73;;
8013;SDS011;4052;50.500;8.660;2022-10-31T00:10:54;3.87;;;2.23;;
8013;SDS011;4052;50.500;8.660;2022-10-31T00:13:20;2.17;;;1.83;;
8013;SDS011;4052;50.500;8.660;2022-10-31T00:15:46;9.10;;;2.37;;
8013;SDS011;4052;50.500;8.660;2022-10-31T00:18:12;3.10;;;2.30;;
8013;SDS011;4052;50.500;8.660;2022-10-31T00:20:38;2.87;;;2.33;;
8013;SDS011;4052;50.500;8.660;2022-10-31T00:23:04;2.77;;;2.17;;
8013;SDS011;4052;50.500;8.660;2022-10-31T00:25:37;3.60;;;2.03;;
8013;SDS011;4052;50.500;8.660;2022-10-31T00:28:04;3.57;;;1.90;;
8013;SDS011;4052;50.500;8.660;2022-10-31T00:30:30;4.70;;;2.70;;
8013;SDS011;4052;50.500;8.660;2022-10-31T00:32:56;3.57;;;2.77;;
8013;SDS011;4052;50.500;8.660;2022-10-31T00:35:22;4.63;;;2.63;;
8013;SDS011;4052;50.500;8.660;2022-10-31T00:37:48;4.73;;;2.77;;
8013;SDS011;4052;50.500;8.660;2022-10-31T00:40:14;3.50;;;3.20;;
8013;SDS011;4052;50.500;8.660;2022-10-31T00:42:40;3.27;;;2.60;;
8013;SDS011;4052;50.500;8.660;2022-10-31T00:45:07;4.70;;;2.30;;
8013;SDS011;4052;50.500;8.660;2022-10-31T00:47:33;4.57;;;3.63;;
8013;SDS011;4052;50.500;8.660;2022-10-31T00:49:59;3.07;;;2.40;;
8013;SDS011;4052;50.500;8.660;2022-10-31T00:52:25;5.00;;;2.80;;
8013;SDS011;4052;50.500;8.660;2022-10-31T00:54:51;6.63;;;3.63;;
8013;SDS011;4052;50.500;8.660;2022-10-31T00:57:17;4.13;;;2.50;;
8013;SDS011;4052;50.500;8.660;2022-10-31T00:59:43;9.50;;;3.70;;
8013;SDS011;4052;50.500;8.660;2022-10-31T01:02:09;4.33;;;3.07;;
8013;SDS011;4052;50.500;8.660;2022-10-31T01:04:35;5.27;;;3.90;;
8013;SDS011;4052;50.500;8.660;2022-10-31T01:07:01;5.43;;;3.23;;
8013;SDS011;4052;50.500;8.660;2022-10-31T01:09:27;5.13;;;2.67;;
8013;SDS011;4052;50.500;8.660;2022-10-31T01:11:53;5.57;;;3.03;;
8013;SDS011;4052;50.500;8.660;2022-10-31T01:14:19;3.83;;;2.67;;
8013;SDS011;4052;50.500;8.660;2022-10-31T01:16:45;3.67;;;3.07;;
8013;SDS011;4052;50.500;8.660;2022-10-31T01:19:11;5.07;;;2.63;;
8013;SDS011;4052;50.500;8.660;2022-10-31T01:21:37;3.47;;;2.93;;
8013;SDS011;4052;50.500;8.660;2022-10-31T01:24:03;2.60;;;2.23;;
8013;SDS011;4052;50.500;8.660;2022-10-31T01:26:29;4.37;;;3.97;;
8013;SDS011;4052;50.500;8.660;2022-10-31T01:28:59;3.83;;;2.60;;
8013;SDS011;4052;50.500;8.660;2022-10-31T01:31:27;3.83;;;2.20;;
8013;SDS011;4052;50.500;8.660;2022-10-31T01:33:54;4.10;;;2.10;;
8013;SDS011;4052;50.500;8.660;2022-10-31T01:36:25;5.50;;;2.97;;
8013;SDS011;4052;50.500;8.660;2022-10-31T01:38:52;1.87;;;1.77;;
8013;SDS011;4052;50.500;8.660;2022-10-31T01:41:20;1.93;;;1.70;;
8013;SDS011;4052;50.500;8.660;2022-10-31T01:43:48;4.47;;;3.30;;
8013;SDS011;4052;50.500;8.660;2022-10-31T01:46:15;2.67;;;2.17;;
8013;SDS011;4052;50.500;8.660;2022-10-31T01:48:41;4.77;;;2.20;;
8013;SDS011;4052;50.500;8.660;2022-10-31T01:51:07;2.77;;;2.27;;
8013;SDS011;4052;50.500;8.660;2022-10-31T01:53:34;4.73;;;2.73;;
8013;SDS011;4052;50.500;8.660;2022-10-31T01:56:01;5.00;;;2.30;;
8013;SDS011;4052;50.500;8.660;2022-10-31T01:58:28;1.70;;;1.60;;
8013;SDS011;4052;50.500;8.660;2022-10-31T02:00:57;3.00;;;2.43;;
8013;SDS011;4052;50.500;8.660;2022-10-31T02:03:24;3.27;;;2.47;;
8013;SDS011;4052;50.500;8.660;2022-10-31T02:05:51;4.90;;;1.77;;
8013;SDS011;4052;50.500;8.660;2022-10-31T02:08:23;5.67;;;2.63;;
8013;SDS011;4052;50.500;8.660;2022-10-31T02:10:51;1.90;;;1.80;;
8013;SDS011;4052;50.500;8.660;2022-10-31T02:13:17;4.80;;;2.27;;
8013;SDS011;4052;50.500;8.660;2022-10-31T02:15:44;2.07;;;1.87;;
8013;SDS011;4052;50.500;8.660;2022-10-31T02:18:11;1.90;;;1.70;;
8013;SDS011;4052;50.500;8.660;2022-10-31T02:28:25;2.20;;;2.00;;
8013;SDS011;4052;50.500;8.660;2022-10-31T02:31:11;5.40;;;1.97;;
8013;SDS011;4052;50.500;8.660;2022-10-31T02:33:57;2.97;;;1.87;;
8013;SDS011;4052;50.500;8.660;2022-10-31T02:36:37;2.17;;;1.43;;
8013;SDS011;4052;50.500;8.660;2022-10-31T02:41:52;1.90;;;1.77;;
8013;SDS011;4052;50.500;8.660;2022-10-31T02:44:26;5.47;;;2.50;;
8013;SDS011;4052;50.500;8.660;2022-10-31T02:47:13;5.23;;;2.37;;
8013;SDS011;4052;50.500;8.660;2022-10-31T02:52:21;3.43;;;2.47;;
8013;SDS011;4052;50.500;8.660;2022-10-31T02:54:49;5.20;;;2.00;;
8013;SDS011;4052;50.500;8.660;2022-10-31T02:57:15;4.53;;;2.40;;
8013;SDS011;4052;50.500;8.660;2022-10-31T02:59:45;4.53;;;2.80;;
8013;SDS011;4052;50.500;8.660;2022-10-31T03:10:52;2.93;;;2.70;;
8013;SDS011;4052;50.500;8.660;2022-10-31T03:13:01;6.90;;;2.63;;
8013;SDS011;4052;50.500;8.660;2022-10-31T03:15:33;4.57;;;2.30;;
8013;SDS011;4052;50.500;8.660;2022-10-31T03:18:07;3.60;;;2.80;;
8013;SDS011;4052;50.500;8.660;2022-10-31T03:20:37;2.67;;;2.10;;
8013;SDS011;4052;50.500;8.660;2022-10-31T03:23:06;4.27;;;3.33;;
8013;SDS011;4052;50.500;8.660;2022-10-31T03:25:34;4.30;;;2.70;;
8013;SDS011;4052;50.500;8.660;2022-10-31T03:28:01;3.03;;;2.40;;
8013;SDS011;4052;50.500;8.660;2022-10-31T03:30:28;3.83;;;2.50;;
8013;SDS011;4052;50.500;8.660;2022-10-31T03:32:55;4.87;;;2.57;;
8013;SDS011;4052;50.500;8.660;2022-10-31T03:35:23;3.83;;;2.70;;
8013;SDS011;4052;50.500;8.660;2022-10-31T03:37:49;4.00;;;2.23;;
8013;SDS011;4052;50.500;8.660;2022-10-31T03:40:18;3.67;;;2.00;;
8013;SDS011;4052;50.500;8.660;2022-10-31T03:42:46;4.83;;;2.23;;
8013;SDS011;4052;50.500;8.660;2022-10-31T03:45:17;3.57;;;2.77;;
8013;SDS011;4052;50.500;8.660;2022-10-31T03:47:46;2.87;;;2.67;;
8013;SDS011;4052;50.500;8.660;2022-10-31T03:50:13;3.30;;;2.87;;
8013;SDS011;4052;50.500;8.660;2022-10-31T03:55:10;4.57;;;2.37;;
8013;SDS011;4052;50.500;8.660;2022-10-31T03:57:39;3.40;;;2.37;;
8013;SDS011;4052;50.500;8.660;2022-10-31T04:02:33;4.97;;;4.07;;
8013;SDS011;4052;50.500;8.660;2022-10-31T04:05:00;3.63;;;2.60;;
8013;SDS011;4052;50.500;8.660;2022-10-31T04:07:30;4.53;;;2.93;;
8013;SDS011;4052;50.500;8.660;2022-10-31T04:09:57;3.90;;;2.10;;
8013;SDS011;4052;50.500;8.660;2022-10-31T04:12:24;3.70;;;2.90;;
8013;SDS011;4052;50.500;8.660;2022-10-31T04:14:51;2.87;;;1.90;;
8013;SDS011;4052;50.500;8.660;2022-10-31T04:17:18;2.17;;;1.97;;
8013;SDS011;4052;50.500;8.660;2022-10-31T04:19:45;1.80;;;1.70;;
8013;SDS011;4052;50.500;8.660;2022-10-31T04:22:11;3.30;;;2.60;;
8013;SDS011;4052;50.500;8.660;2022-10-31T04:24:38;2.57;;;2.30;;
8013;SDS011;4052;50.500;8.660;2022-10-31T04:27:05;2.63;;;2.43;;
8013;SDS011;4052;50.500;8.660;2022-10-31T04:29:31;2.67;;;2.43;;
8013;SDS011;4052;50.500;8.660;2022-10-31T04:31:56;2.50;;;2.27;;
8013;SDS011;4052;50.500;8.660;2022-10-31T04:34:22;2.23;;;2.03;;
8013;SDS011;4052;50.500;8.660;2022-10-31T04:36:48;3.67;;;3.13;;
8013;SDS011;4052;50.500;8.660;2022-10-31T04:39:14;2.40;;;2.00;;
8013;SDS011;4052;50.500;8.660;2022-10-31T04:41:40;2.60;;;2.40;;
8013;SDS011;4052;50.500;8.660;2022-10-31T04:44:06;2.97;;;2.57;;
8013;SDS011;4052;50.500;8.660;2022-10-31T04:46:32;2.10;;;1.87;;
8013;SDS011;4052;50.500;8.660;2022-10-31T04:48:58;2.17;;;2.00;;
8013;SDS011;4052;50.500;8.660;2022-10-31T04:51:24;3.33;;;2.20;;
8013;SDS011;4052;50.500;8.660;2022-10-31T04:53:50;2.63;;;2.40;;
8013;SDS011;4052;50.500;8.660;2022-10-31T04:56:16;2.77;;;2.47;;
8013;SDS011;4052;50.500;8.660;2022-10-31T04:58:42;2.80;;;2.17;;
8013;SDS011;4052;50.500;8.660;2022-10-31T05:01:08;6.63;;;2.43;;
8013;SDS011;4052;50.500;8.660;2022-10-31T05:03:34;2.57;;;2.37;;
8013;SDS011;4052;50.500;8.660;2022-10-31T05:06:00;9.20;;;2.50;;
8013;SDS011;4052;50.500;8.660;2022-10-31T05:08:26;4.57;;;2.40;;
8013;SDS011;4052;50.500;8.660;2022-10-31T05:10:52;2.80;;;2.10;;
8013;SDS011;4052;50.500;8.660;2022-10-31T05:13:18;3.33;;;3.03;;
8013;SDS011;4052;50.500;8.660;2022-10-31T05:15:44;3.63;;;2.80;;
8013;SDS011;4052;50.500;8.660;2022-10-31T05:18:10;3.83;;;2.23;;
8013;SDS011;4052;50.500;8.660;2022-10-31T05:20:36;3.80;;;2.93;;
8013;SDS011;4052;50.500;8.660;2022-10-31T05:23:02;3.53;;;2.33;;
8013;SDS011;4052;50.500;8.660;2022-10-31T05:25:28;3.17;;;2.83;;
8013;SDS011;4052;50.500;8.660;2022-10-31T05:27:55;2.73;;;1.73;;
8013;SDS011;4052;50.500;8.660;2022-10-31T05:30:23;3.10;;;2.80;;
8013;SDS011;4052;50.500;8.660;2022-10-31T05:32:50;2.23;;;2.00;;
8013;SDS011;4052;50.500;8.660;2022-10-31T05:35:18;2.47;;;2.07;;
8013;SDS011;4052;50.500;8.660;2022-10-31T05:37:44;2.47;;;2.23;;
8013;SDS011;4052;50.500;8.660;2022-10-31T05:40:11;4.37;;;2.53;;
8013;SDS011;4052;50.500;8.660;2022-10-31T05:42:41;5.07;;;2.17;;
8013;SDS011;4052;50.500;8.660;2022-10-31T05:45:08;2.90;;;2.47;;
8013;SDS011;4052;50.500;8.660;2022-10-31T05:47:34;3.50;;;1.97;;
8013;SDS011;4052;50.500;8.660;2022-10-31T05:50:00;2.97;;;2.23;;
8013;SDS011;4052;50.500;8.660;2022-10-31T05:52:26;4.57;;;3.37;;
8013;SDS011;4052;50.500;8.660;2022-10-31T05:54:52;6.63;;;3.20;;
8013;SDS011;4052;50.500;8.660;2022-10-31T05:57:18;2.03;;;1.90;;
8013;SDS011;4052;50.500;8.660;2022-10-31T05:59:44;2.57;;;2.20;;
8013;SDS011;4052;50.500;8.660;2022-10-31T06:02:10;3.23;;;2.20;;
8013;SDS011;4052;50.500;8.660;2022-10-31T06:04:36;2.70;;;2.50;;
8013;SDS011;4052;50.500;8.660;2022-10-31T06:07:02;2.60;;;2.40;;
8013;SDS011;4052;50.500;8.660;2022-10-31T06:09:28;8.33;;;2.90;;
8013;SDS011;4052;50.500;8.660;2022-10-31T06:11:54;3.33;;;2.67;;
8013;SDS011;4052;50.500;8.660;2022-10-31T06:14:20;3.67;;;2.70;;
8013;SDS011;4052;50.500;8.660;2022-10-31T06:16:46;3.17;;;2.87;;
8013;SDS011;4052;50.500;8.660;2022-10-31T06:19:12;2.83;;;2.17;;
8013;SDS011;4052;50.500;8.660;2022-10-31T06:21:38;2.23;;;1.93;;
8013;SDS011;4052;50.500;8.660;2022-10-31T06:24:04;4.37;;;3.17;;
8013;SDS011;4052;50.500;8.660;2022-10-31T06:26:30;7.23;;;2.87;;
8013;SDS011;4052;50.500;8.660;2022-10-31T06:28:56;4.50;;;2.80;;
8013;SDS011;4052;50.500;8.660;2022-10-31T06:31:21;2.73;;;2.50;;
8013;SDS011;4052;50.500;8.660;2022-10-31T06:33:47;2.47;;;1.90;;
8013;SDS011;4052;50.500;8.660;2022-10-31T06:36:13;2.80;;;2.53;;
8013;SDS011;4052;50.500;8.660;2022-10-31T06:38:39;1.93;;;1.80;;
8013;SDS011;4052;50.500;8.660;2022-10-31T06:41:05;2.27;;;2.10;;
8013;SDS011;4052;50.500;8.660;2022-10-31T06:43:31;2.40;;;2.20;;
8013;SDS011;4052;50.500;8.660;2022-10-31T06:45:57;3.77;;;2.47;;
8013;SDS011;4052;50.500;8.660;2022-10-31T06:48:23;2.80;;;2.60;;
8013;SDS011;4052;50.500;8.660;2022-10-31T06:50:49;2.53;;;2.13;;
8013;SDS011;4052;50.500;8.660;2022-10-31T06:53:15;4.20;;;2.37;;
8013;SDS011;4052;50.500;8.660;2022-10-31T06:55:41;3.17;;;1.73;;
8013;SDS011;4052;50.500;8.660;2022-10-31T06:58:08;2.30;;;2.03;;
8013;SDS011;4052;50.500;8.660;2022-10-31T07:00:34;2.90;;;1.90;;
8013;SDS011;4052;50.500;8.660;2022-10-31T07:03:01;1.93;;;1.73;;
8013;SDS011;4052;50.500;8.660;2022-10-31T07:05:27;2.77;;;1.87;;
8013;SDS011;4052;50.500;8.660;2022-10-31T07:07:54;4.27;;;2.57;;
8013;SDS011;4052;50.500;8.660;2022-10-31T07:10:20;2.30;;;1.60;;
8013;SDS011;4052;50.500;8.660;2022-10-31T07:12:46;4.50;;;1.83;;
8013;SDS011;4052;50.500;8.660;2022-10-31T07:15:12;2.27;;;2.07;;
8013;SDS011;4052;50.500;8.660;2022-10-31T07:17:38;2.63;;;2.20;;
8013;SDS011;4052;50.500;8.660;2022-10-31T07:20:04;2.00;;;1.80;;
8013;SDS011;4052;50.500;8.660;2022-10-31T07:22:36;56.50;;;23.20;;
8013;SDS011;4052;50.500;8.660;2022-10-31T07:25:03;18.03;;;8.33;;
8013;SDS011;4052;50.500;8.660;2022-10-31T07:27:29;3.00;;;2.60;;
8013;SDS011;4052;50.500;8.660;2022-10-31T07:30:00;2.50;;;1.97;;
8013;SDS011;4052;50.500;8.660;2022-10-31T07:32:26;5.87;;;1.90;;
8013;SDS011;4052;50.500;8.660;2022-10-31T07:34:52;2.30;;;2.10;;
8013;SDS011;4052;50.500;8.660;2022-10-31T07:37:18;7.80;;;4.63;;
8013;SDS011;4052;50.500;8.660;2022-10-31T07:39:44;3.13;;;2.80;;
8013;SDS011;4052;50.500;8.660;2022-10-31T07:42:10;7.70;;;2.70;;
8013;SDS011;4052;50.500;8.660;2022-10-31T07:44:36;2.30;;;1.90;;
8013;SDS011;4052;50.500;8.660;2022-10-31T07:47:01;5.33;;;2.73;;
8013;SDS011;4052;50.500;8.660;2022-10-31T07:49:27;3.27;;;2.97;;
8013;SDS011;4052;50.500;8.660;2022-10-31T07:51:54;2.83;;;2.63;;
8013;SDS011;4052;50.500;8.660;2022-10-31T07:54:20;3.13;;;2.67;;
8013;SDS011;4052;50.500;8.660;2022-10-31T07:56:46;3.07;;;2.50;;
8013;SDS011;4052;50.500;8.660;2022-10-31T07:59:12;2.93;;;2.63;;
8013;SDS011;4052;50.500;8.660;2022-10-31T08:01:38;5.97;;;3.03;;
8013;SDS011;4052;50.500;8.660;2022-10-31T08:04:04;3.37;;;2.93;;
8013;SDS011;4052;50.500;8.660;2022-10-31T08:06:30;6.90;;;3.80;;
8013;SDS011;4052;50.500;8.660;2022-10-31T08:08:56;5.20;;;3.33;;
8013;SDS011;4052;50.500;8.660;2022-10-31T08:11:22;9.07;;;3.87;;
8013;SDS011;4052;50.500;8.660;2022-10-31T08:13:48;10.07;;;4.60;;
8013;SDS011;4052;50.500;8.660;2022-10-31T08:16:14;8.10;;;3.87;;
8013;SDS011;4052;50.500;8.660;2022-10-31T08:18:40;3.50;;;3.10;;
8013;SDS011;4052;50.500;8.660;2022-10-31T08:21:06;6.00;;;3.47;;
8013;SDS011;4052;50.500;8.660;2022-10-31T08:23:32;7.87;;;4.00;;
8013;SDS011;4052;50.500;8.660;2022-10-31T08:25:58;3.83;;;2.70;;
8013;SDS011;4052;50.500;8.660;2022-10-31T08:28:24;7.37;;;3.63;;
8013;SDS011;4052;50.500;8.660;2022-10-31T08:30:50;5.23;;;3.97;;
8013;SDS011;4052;50.500;8.660;2022-10-31T08:33:16;4.13;;;3.63;;
8013;SDS011;4052;50.500;8.660;2022-10-31T08:35:43;8.77;;;4.63;;
8013;SDS011;4052;50.500;8.660;2022-10-31T08:38:10;3.83;;;2.93;;
8013;SDS011;4052;50.500;8.660;2022-10-31T08:40:36;10.13;;;5.37;;
8013;SDS011;4052;50.500;8.660;2022-10-31T08:43:03;6.23;;;3.57;;
8013;SDS011;4052;50.500;8.660;2022-10-31T08:45:30;4.80;;;3.10;;
8013;SDS011;4052;50.500;8.660;2022-10-31T08:47:57;6.03;;;4.07;;
8013;SDS011;4052;50.500;8.660;2022-10-31T08:50:23;4.70;;;3.70;;
8013;SDS011;4052;50.500;8.660;2022-10-31T08:52:49;4.50;;;3.30;;
8013;SDS011;4052;50.500;8.660;2022-10-31T08:55:15;4.53;;;3.03;;
8013;SDS011;4052;50.500;8.660;2022-10-31T08:57:41;7.83;;;4.57;;
8013;SDS011;4052;50.500;8.660;2022-10-31T09:00:07;5.23;;;3.40;;
8013;SDS011;4052;50.500;8.660;2022-10-31T09:02:33;6.23;;;4.70;;
8013;SDS011;4052;50.500;8.660;2022-10-31T09:04:59;5.23;;;3.70;;
8013;SDS011;4052;50.500;8.660;2022-10-31T09:07:25;5.27;;;3.63;;
8013;SDS011;4052;50.500;8.660;2022-10-31T09:09:51;5.80;;;4.10;;
8013;SDS011;4052;50.500;8.660;2022-10-31T09:12:17;5.93;;;3.60;;
8013;SDS011;4052;50.500;8.660;2022-10-31T09:14:43;5.70;;;4.60;;
8013;SDS011;4052;50.500;8.660;2022-10-31T09:17:09;10.37;;;5.00;;
8013;SDS011;4052;50.500;8.660;2022-10-31T09:19:35;6.93;;;5.17;;
8013;SDS011;4052;50.500;8.660;2022-10-31T09:22:01;5.33;;;4.10;;
8013;SDS011;4052;50.500;8.660;2022-10-31T09:24:27;6.13;;;4.63;;
8013;SDS011;4052;50.500;8.660;2022-10-31T09:26:53;7.30;;;4.60;;
8013;SDS011;4052;50.500;8.660;2022-10-31T09:29:19;6.80;;;4.93;;
8013;SDS011;4052;50.500;8.660;2022-10-31T09:31:45;7.37;;;4.77;;
8013;SDS011;4052;50.500;8.660;2022-10-31T09:34:10;8.63;;;4.53;;
8013;SDS011;4052;50.500;8.660;2022-10-31T09:36:40;8.83;;;4.97;;
8013;SDS011;4052;50.500;8.660;2022-10-31T09:39:06;7.87;;;4.77;;
8013;SDS011;4052;50.500;8.660;2022-10-31T09:41:46;8.97;;;5.70;;
8013;SDS011;4052;50.500;8.660;2022-10-31T09:44:18;8.67;;;5.10;;
8013;SDS011;4052;50.500;8.660;2022-10-31T09:47:00;13.53;;;6.00;;
8013;SDS011;4052;50.500;8.660;2022-10-31T09:52:03;10.77;;;5.40;;
8013;SDS011;4052;50.500;8.660;2022-10-31T09:54:36;8.23;;;5.93;;
8013;SDS011;4052;50.500;8.660;2022-10-31T09:57:04;8.23;;;4.83;;
8013;SDS011;4052;50.500;8.660;2022-10-31T09:59:34;11.37;;;6.30;;
8013;SDS011;4052;50.500;8.660;2022-10-31T10:02:01;10.23;;;6.40;;
8013;SDS011;4052;50.500;8.660;2022-10-31T10:04:49;10.23;;;5.57;;
8013;SDS011;4052;50.500;8.660;2022-10-31T10:07:22;10.43;;;5.87;;
8013;SDS011;4052;50.500;8.660;2022-10-31T10:09:50;12.73;;;6.80;;
8013;SDS011;4052;50.500;8.660;2022-10-31T10:12:19;11.17;;;6.37;;
8013;SDS011;4052;50.500;8.660;2022-10-31T10:20:05;12.93;;;6.53;;
8013;SDS011;4052;50.500;8.660;2022-10-31T10:27:41;11.20;;;6.27;;
8013;SDS011;4052;50.500;8.660;2022-10-31T10:30:15;9.47;;;5.83;;
8013;SDS011;4052;50.500;8.660;2022-10-31T10:32:46;9.00;;;5.77;;
8013;SDS011;4052;50.500;8.660;2022-10-31T10:37:49;13.93;;;6.80;;
8013;SDS011;4052;50.500;8.660;2022-10-31T10:40:17;12.30;;;6.07;;
8013;SDS011;4052;50.500;8.660;2022-10-31T10:45:49;9.90;;;6.63;;
8013;SDS011;4052;50.500;8.660;2022-10-31T10:51:06;11.70;;;7.23;;
8013;SDS011;4052;50.500;8.660;2022-10-31T10:56:47;11.17;;;6.50;;
8013;SDS011;4052;50.500;8.660;2022-10-31T10:59:14;9.77;;;5.67;;
8013;SDS011;4052;50.500;8.660;2022-10-31T11:01:40;16.37;;;8.17;;
8013;SDS011;4052;50.500;8.660;2022-10-31T11:06:59;8.67;;;6.43;;
8013;SDS011;4052;50.500;8.660;2022-10-31T11:09:25;12.30;;;6.20;;
8013;SDS011;4052;50.500;8.660;2022-10-31T11:11:51;9.47;;;6.13;;
8013;SDS011;4052;50.500;8.660;2022-10-31T11:14:17;13.33;;;6.87;;
8013;SDS011;4052;50.500;8.660;2022-10-31T11:16:46;8.90;;;6.20;;
8013;SDS011;4052;50.500;8.660;2022-10-31T11:21:41;8.63;;;6.40;;
8013;SDS011;4052;50.500;8.660;2022-10-31T11:26:36;9.00;;;5.97;;
8013;SDS011;4052;50.500;8.660;2022-10-31T11:29:03;7.67;;;5.33;;
8013;SDS011;4052;50.500;8.660;2022-10-31T11:31:30;7.63;;;6.17;;
8013;SDS011;4052;50.500;8.660;2022-10-31T11:33:58;12.27;;;6.77;;
8013;SDS011;4052;50.500;8.660;2022-10-31T11:36:46;10.43;;;5.67;;
8013;SDS011;4052;50.500;8.660;2022-10-31T11:39:14;9.10;;;6.23;;
8013;SDS011;4052;50.500;8.660;2022-10-31T11:41:41;8.23;;;6.07;;
8013;SDS011;4052;50.500;8.660;2022-10-31T11:44:12;9.20;;;5.67;;
8013;SDS011;4052;50.500;8.660;2022-10-31T11:46:39;7.47;;;5.13;;
8013;SDS011;4052;50.500;8.660;2022-10-31T11:49:11;9.13;;;5.13;;
8013;SDS011;4052;50.500;8.660;2022-10-31T11:51:39;7.73;;;5.30;;
8013;SDS011;4052;50.500;8.660;2022-10-31T11:54:05;6.57;;;4.90;;
8013;SDS011;4052;50.500;8.660;2022-10-31T11:56:40;7.40;;;5.60;;
8013;SDS011;4052;50.500;8.660;2022-10-31T11:59:15;7.93;;;4.53;;
8013;SDS011;4052;50.500;8.660;2022-10-31T12:01:46;6.07;;;5.30;;
8013;SDS011;4052;50.500;8.660;2022-10-31T12:04:12;8.63;;;4.50;;
8013;SDS011;4052;50.500;8.660;2022-10-31T12:06:40;9.00;;;5.53;;
8013;SDS011;4052;50.500;8.660;2022-10-31T12:09:28;8.67;;;5.33;;
8013;SDS011;4052;50.500;8.660;2022-10-31T12:14:47;10.43;;;4.90;;
8013;SDS011;4052;50.500;8.660;2022-10-31T12:17:19;7.40;;;5.20;;
8013;SDS011;4052;50.500;8.660;2022-10-31T12:22:36;6.20;;;4.10;;
8013;SDS011;4052;50.500;8.660;2022-10-31T12:30:20;8.37;;;4.67;;
8013;SDS011;4052;50.500;8.660;2022-10-31T12:35:18;5.83;;;3.80;;
8013;SDS011;4052;50.500;8.660;2022-10-31T12:58:33;11.00;;;4.50;;
8013;SDS011;4052;50.500;8.660;2022-10-31T13:01:47;8.23;;;4.10;;
8013;SDS011;4052;50.500;8.660;2022-10-31T13:06:24;5.17;;;4.20;;
8013;SDS011;4052;50.500;8.660;2022-10-31T13:08:52;4.73;;;3.67;;
8013;SDS011;4052;50.500;8.660;2022-10-31T13:11:27;6.93;;;4.47;;
8013;SDS011;4052;50.500;8.660;2022-10-31T13:13:56;5.77;;;4.23;;
8013;SDS011;4052;50.500;8.660;2022-10-31T13:16:24;6.40;;;3.87;;
8013;SDS011;4052;50.500;8.660;2022-10-31T13:19:25;6.03;;;3.30;;
8013;SDS011;4052;50.500;8.660;2022-10-31T13:24:34;6.33;;;3.87;;
8013;SDS011;4052;50.500;8.660;2022-10-31T13:27:02;3.37;;;3.07;;
8013;SDS011;4052;50.500;8.660;2022-10-31T13:29:30;4.67;;;3.50;;
8013;SDS011;4052;50.500;8.660;2022-10-31T13:31:58;5.20;;;3.13;;
8013;SDS011;4052;50.500;8.660;2022-10-31T13:34:37;5.80;;;4.10;;
8013;SDS011;4052;50.500;8.660;2022-10-31T13:37:21;5.73;;;3.63;;
8013;SDS011;4052;50.500;8.660;2022-10-31T13:42:23;4.73;;;3.37;;
8013;SDS011;4052;50.500;8.660;2022-10-31T13:44:51;3.00;;;2.33;;
8013;SDS011;4052;50.500;8.660;2022-10-31T13:47:20;4.27;;;3.10;;
8013;SDS011;4052;50.500;8.660;2022-10-31T13:49:46;3.90;;;2.87;;
8013;SDS011;4052;50.500;8.660;2022-10-31T13:54:44;3.53;;;3.07;;
8013;SDS011;4052;50.500;8.660;2022-10-31T13:59:57;6.23;;;2.37;;
8013;SDS011;4052;50.500;8.660;2022-10-31T14:02:34;5.07;;;2.60;;
8013;SDS011;4052;50.500;8.660;2022-10-31T14:05:03;4.07;;;3.03;;
8013;SDS011;4052;50.500;8.660;2022-10-31T14:07:29;3.57;;;2.90;;
8013;SDS011;4052;50.500;8.660;2022-10-31T14:09:57;4.40;;;2.63;;
8013;SDS011;4052;50.500;8.660;2022-10-31T14:12:32;3.57;;;2.70;;
8013;SDS011;4052;50.500;8.660;2022-10-31T14:15:13;5.60;;;2.40;;
8013;SDS011;4052;50.500;8.660;2022-10-31T14:17:50;3.57;;;2.77;;
8013;SDS011;4052;50.500;8.660;2022-10-31T14:22:46;2.87;;;2.57;;
8013;SDS011;4052;50.500;8.660;2022-10-31T14:27:57;3.73;;;2.50;;
8013;SDS011;4052;50.500;8.660;2022-10-31T14:30:25;3.80;;;2.47;;
8013;SDS011;4052;50.500;8.660;2022-10-31T14:32:56;6.23;;;2.93;;
8013;SDS011;4052;50.500;8.660;2022-10-31T14:35:24;4.33;;;2.43;;
8013;SDS011;4052;50.500;8.660;2022-10-31T14:45:40;3.13;;;2.80;;
8013;SDS011;4052;50.500;8.660;2022-10-31T14:50:50;5.97;;;3.30;;
8013;SDS011;4052;50.500;8.660;2022-10-31T14:53:26;3.00;;;2.70;;
8013;SDS011;4052;50.500;8.660;2022-10-31T14:55:54;3.37;;;2.93;;
8013;SDS011;4052;50.500;8.660;2022-10-31T14:58:21;4.07;;;2.67;;
8013;SDS011;4052;50.500;8.660;2022-10-31T15:00:48;3.63;;;2.10;;
8013;SDS011;4052;50.500;8.660;2022-10-31T15:03:16;3.53;;;2.53;;
8013;SDS011;4052;50.500;8.660;2022-10-31T15:05:48;2.80;;;2.37;;
8013;SDS011;4052;50.500;8.660;2022-10-31T15:13:49;3.27;;;2.83;;
8013;SDS011;4052;50.500;8.660;2022-10-31T15:16:17;4.57;;;2.90;;
8013;SDS011;4052;50.500;8.660;2022-10-31T15:18:52;4.87;;;3.03;;
8013;SDS011;4052;50.500;8.660;2022-10-31T15:21:19;3.83;;;3.00;;
8013;SDS011;4052;50.500;8.660;2022-10-31T15:23:45;4.87;;;3.00;;
8013;SDS011;4052;50.500;8.660;2022-10-31T15:26:17;2.57;;;2.37;;
8013;SDS011;4052;50.500;8.660;2022-10-31T15:28:43;4.57;;;2.90;;
8013;SDS011;4052;50.500;8.660;2022-10-31T15:31:14;3.23;;;2.40;;
8013;SDS011;4052;50.500;8.660;2022-10-31T15:33:41;4.77;;;3.07;;
8013;SDS011;4052;50.500;8.660;2022-10-31T15:36:17;5.50;;;2.53;;
8013;SDS011;4052;50.500;8.660;2022-10-31T15:38:43;5.13;;;3.23;;
8013;SDS011;4052;50.500;8.660;2022-10-31T15:41:29;6.70;;;3.27;;
8013;SDS011;4052;50.500;8.660;2022-10-31T15:43:59;4.47;;;3.57;;
8013;SDS011;4052;50.500;8.660;2022-10-31T15:46:26;4.93;;;3.33;;
8013;SDS011;4052;50.500;8.660;2022-10-31T15:48:52;5.30;;;3.90;;
8013;SDS011;4052;50.500;8.660;2022-10-31T15:51:24;5.23;;;3.23;;
8013;SDS011;4052;50.500;8.660;2022-10-31T15:53:51;5.93;;;3.80;;
8013;SDS011;4052;50.500;8.660;2022-10-31T15:56:22;8.13;;;3.97;;
8013;SDS011;4052;50.500;8.660;2022-10-31T15:58:49;6.43;;;3.10;;
8013;SDS011;4052;50.500;8.660;2022-10-31T16:01:26;8.07;;;3.93;;
8013;SDS011;4052;50.500;8.660;2022-10-31T16:06:24;78.57;;;37.93;;
8013;SDS011;4052;50.500;8.660;2022-10-31T16:08:50;97.33;;;44.90;;
8013;SDS011;4052;50.500;8.660;2022-10-31T16:11:38;100.73;;;45.07;;
8013;SDS011;4052;50.500;8.660;2022-10-31T16:14:04;10.73;;;5.97;;
8013;SDS011;4052;50.500;8.660;2022-10-31T16:16:31;8.63;;;3.80;;
8013;SDS011;4052;50.500;8.660;2022-10-31T16:18:57;5.70;;;3.37;;
8013;SDS011;4052;50.500;8.660;2022-10-31T16:21:30;9.03;;;4.13;;
8013;SDS011;4052;50.500;8.660;2022-10-31T16:24:18;6.93;;;3.70;;
8013;SDS011;4052;50.500;8.660;2022-10-31T16:26:46;6.33;;;3.83;;
8013;SDS011;4052;50.500;8.660;2022-10-31T16:35:16;7.73;;;3.73;;
8013;SDS011;4052;50.500;8.660;2022-10-31T16:37:43;5.87;;;4.20;;
8013;SDS011;4052;50.500;8.660;2022-10-31T16:40:10;5.83;;;3.43;;
8013;SDS011;4052;50.500;8.660;2022-10-31T16:42:36;6.43;;;3.43;;
8013;SDS011;4052;50.500;8.660;2022-10-31T16:45:02;6.70;;;3.93;;
8013;SDS011;4052;50.500;8.660;2022-10-31T16:47:30;6.57;;;3.97;;
8013;SDS011;4052;50.500;8.660;2022-10-31T16:49:56;7.90;;;4.23;;
8013;SDS011;4052;50.500;8.660;2022-10-31T16:52:25;5.80;;;3.47;;
8013;SDS011;4052;50.500;8.660;2022-10-31T16:54:51;3.80;;;3.20;;
8013;SDS011;4052;50.500;8.660;2022-10-31T16:57:20;6.97;;;3.77;;
8013;SDS011;4052;50.500;8.660;2022-10-31T16:59:48;4.97;;;3.50;;
8013;SDS011;4052;50.500;8.660;2022-10-31T17:02:14;3.70;;;3.37;;
8013;SDS011;4052;50.500;8.660;2022-10-31T17:04:41;4.20;;;2.80;;
8013;SDS011;4052;50.500;8.660;2022-10-31T17:07:07;5.23;;;3.23;;
8013;SDS011;4052;50.500;8.660;2022-10-31T17:09:33;6.30;;;2.77;;
8013;SDS011;4052;50.500;8.660;2022-10-31T17:11:59;4.53;;;3.63;;
8013;SDS011;4052;50.500;8.660;2022-10-31T17:14:25;61.70;;;27.23;;
8013;SDS011;4052;50.500;8.660;2022-10-31T17:16:51;12.37;;;7.50;;
8013;SDS011;4052;50.500;8.660;2022-10-31T17:19:17;6.03;;;3.77;;
8013;SDS011;4052;50.500;8.660;2022-10-31T17:21:43;6.73;;;3.93;;
8013;SDS011;4052;50.500;8.660;2022-10-31T17:24:11;5.00;;;4.00;;
8013;SDS011;4052;50.500;8.660;2022-10-31T17:26:37;4.47;;;3.97;;
8013;SDS011;4052;50.500;8.660;2022-10-31T17:29:03;6.43;;;3.70;;
8013;SDS011;4052;50.500;8.660;2022-10-31T17:31:30;7.13;;;3.87;;
8013;SDS011;4052;50.500;8.660;2022-10-31T17:33:57;4.50;;;3.60;;
8013;SDS011;4052;50.500;8.660;2022-10-31T17:36:24;5.67;;;3.53;;